Time;durP1;ratioP1;P1;durP2;ratioP2;P2;SDS_P1;SDS_P2;PMS_P1;PMS_P2;Temp;Humidity;BMP_temperature;BMP_pressure;BME280_temperature;BME280_humidity;BME280_pressure;Samples;Min_cycle;Max_cycle;Signal;HPM_P1;HPM_P2
2023/04/03 00:00:40;;;;;;;7.30;4.65;;;5.90;81.30;;;;;;4954123;28;20047;-62
2023/04/03 00:03:05;;;;;;;5.90;5.07;;;5.90;81.10;;;;;;4955743;28;20101;-62
2023/04/03 00:05:31;;;;;;;6.18;4.90;;;5.80;80.90;;;;;;4954590;28;20035;-61
2023/04/03 00:07:56;;;;;;;6.15;5.47;;;5.80;80.90;;;;;;4953910;28;20140;-62
2023/04/03 00:10:22;;;;;;;6.75;5.30;;;5.80;80.90;;;;;;4955392;28;20034;-62
2023/04/03 00:12:48;;;;;;;5.47;4.78;;;5.70;81.00;;;;;;4952100;28;20124;-62
2023/04/03 00:15:14;;;;;;;7.78;5.60;;;5.70;81.00;;;;;;4955816;28;20050;-62
2023/04/03 00:17:39;;;;;;;6.90;5.10;;;5.70;81.10;;;;;;4954437;28;20043;-62
2023/04/03 00:20:06;;;;;;;5.93;5.32;;;5.70;81.00;;;;;;4952606;28;20057;-63
2023/04/03 00:22:31;;;;;;;6.10;5.28;;;5.70;80.90;;;;;;4956209;28;20059;-61
2023/04/03 00:24:57;;;;;;;8.38;5.20;;;5.70;81.00;;;;;;4954505;28;20133;-62
2023/04/03 00:27:22;;;;;;;6.18;5.57;;;5.60;80.90;;;;;;4953218;28;20039;-62
2023/04/03 00:29:48;;;;;;;7.03;5.63;;;5.60;81.00;;;;;;4954872;28;20066;-62
2023/04/03 00:32:14;;;;;;;6.32;5.60;;;5.60;81.10;;;;;;4956708;28;20439;-62
2023/04/03 00:34:39;;;;;;;5.88;5.28;;;5.60;81.10;;;;;;4954725;28;20034;-62
2023/04/03 00:37:05;;;;;;;6.13;5.53;;;5.60;80.90;;;;;;4952972;28;20357;-62
2023/04/03 00:39:31;;;;;;;6.50;5.78;;;5.60;80.90;;;;;;4954390;28;20618;-62
2023/04/03 00:41:57;;;;;;;6.30;5.70;;;5.60;80.90;;;;;;4952116;28;20030;-62
2023/04/03 00:44:45;;;;;;;6.78;6.07;;;5.60;81.00;;;;;;4954236;28;20039;-62
2023/04/03 00:47:15;;;;;;;7.30;5.72;;;5.50;81.30;;;;;;4933521;28;20410;-62
2023/04/03 00:49:42;;;;;;;6.78;5.55;;;5.50;81.10;;;;;;4958299;28;20059;-63
2023/04/03 00:52:15;;;;;;;6.13;5.53;;;5.50;81.10;;;;;;4957749;28;20513;-62
2023/04/03 00:54:43;;;;;;;7.53;5.57;;;5.60;81.30;;;;;;4957222;28;20035;-62
2023/04/03 00:57:10;;;;;;;6.20;5.60;;;5.50;81.30;;;;;;4955037;28;20047;-63
2023/04/03 00:59:43;;;;;;;6.78;5.80;;;5.50;81.30;;;;;;4952811;28;20387;-61
2023/04/03 01:02:09;;;;;;;7.95;5.90;;;5.60;81.20;;;;;;4960184;28;20062;-61
2023/04/03 01:04:41;;;;;;;6.70;5.82;;;5.60;80.90;;;;;;4957471;28;20470;-62
2023/04/03 01:07:21;;;;;;;6.50;5.57;;;5.60;80.80;;;;;;4954806;28;20063;-62
2023/04/03 01:09:50;;;;;;;6.28;5.68;;;5.60;80.70;;;;;;4953635;28;20215;-62
2023/04/03 01:12:31;;;;;;;6.35;5.55;;;5.50;80.60;;;;;;4951787;28;20054;-62
2023/04/03 01:15:10;;;;;;;6.00;5.40;;;5.60;80.70;;;;;;4952535;28;20584;-62
2023/04/03 01:17:39;;;;;;;5.93;5.20;;;5.50;80.40;;;;;;4954794;28;20569;-62
2023/04/03 01:20:34;;;;;;;6.28;5.45;;;5.50;80.40;;;;;;4956379;28;20038;-62
2023/04/03 01:23:08;;;;;;;6.07;5.47;;;5.50;80.40;;;;;;4956681;28;20038;-62
2023/04/03 01:25:36;;;;;;;7.55;5.32;;;5.50;80.30;;;;;;4956470;28;20086;-62
2023/04/03 01:28:03;;;;;;;6.55;5.35;;;5.50;80.00;;;;;;4944133;28;20035;-63
2023/04/03 01:31:08;;;;;;;5.78;5.18;;;5.50;79.80;;;;;;4957165;28;20050;-62
2023/04/03 01:33:35;;;;;;;6.68;5.13;;;5.50;79.30;;;;;;4951798;28;20043;-63
2023/04/03 01:36:00;;;;;;;5.47;4.97;;;5.40;79.30;;;;;;4953170;28;20322;-62
2023/04/03 01:38:26;;;;;;;6.20;5.10;;;5.40;79.10;;;;;;4940807;28;20463;-63
2023/04/03 01:40:52;;;;;;;6.20;5.40;;;5.40;79.00;;;;;;4951635;28;20534;-63
2023/04/03 01:43:17;;;;;;;5.72;5.18;;;5.40;79.10;;;;;;4953695;28;20031;-63
2023/04/03 01:45:43;;;;;;;6.22;5.15;;;5.40;78.80;;;;;;4955000;28;20071;-62
2023/04/03 01:48:08;;;;;;;6.43;5.15;;;5.30;78.60;;;;;;4953691;28;20420;-62
2023/04/03 01:50:34;;;;;;;5.93;5.10;;;5.30;78.50;;;;;;4951352;28;20042;-63
2023/04/03 01:53:00;;;;;;;6.35;5.30;;;5.30;79.20;;;;;;4954603;28;20113;-63
2023/04/03 01:55:25;;;;;;;6.35;4.97;;;5.30;78.30;;;;;;4952733;28;20652;-62
2023/04/03 01:57:51;;;;;;;5.35;4.82;;;5.30;78.10;;;;;;4953779;28;20126;-62
2023/04/03 02:00:16;;;;;;;5.55;5.00;;;5.30;78.10;;;;;;4937369;28;20032;-62
2023/04/03 02:02:42;;;;;;;5.80;5.18;;;5.30;78.10;;;;;;4953966;28;20039;-63
2023/04/03 02:05:08;;;;;;;6.65;5.20;;;5.30;78.00;;;;;;4956110;28;20046;-62
2023/04/03 02:07:33;;;;;;;6.28;4.82;;;5.30;77.70;;;;;;4954594;28;20133;-61
2023/04/03 02:09:59;;;;;;;5.43;4.65;;;5.30;77.50;;;;;;4952163;28;20037;-63
2023/04/03 02:12:25;;;;;;;5.28;4.70;;;5.30;78.00;;;;;;4952645;28;20620;-62
2023/04/03 02:14:50;;;;;;;5.10;4.60;;;5.30;77.10;;;;;;4953655;28;20109;-62
2023/04/03 02:17:16;;;;;;;5.07;4.55;;;5.30;76.90;;;;;;4951130;28;20035;-62
2023/04/03 02:19:42;;;;;;;5.82;4.47;;;5.30;76.60;;;;;;4954342;28;20570;-62
2023/04/03 02:22:07;;;;;;;5.32;4.68;;;5.30;76.20;;;;;;4952352;28;20035;-63
2023/04/03 02:24:33;;;;;;;5.18;4.68;;;5.20;76.10;;;;;;4956615;28;20082;-62
2023/04/03 02:26:59;;;;;;;5.85;5.25;;;5.30;76.10;;;;;;4955917;28;20558;-62
2023/04/03 02:29:25;;;;;;;6.47;5.18;;;5.20;75.90;;;;;;4957924;28;20034;-63
2023/04/03 02:31:50;;;;;;;5.70;4.88;;;5.20;76.00;;;;;;4955765;28;20470;-62
2023/04/03 02:34:17;;;;;;;7.07;5.00;;;5.20;76.00;;;;;;4957400;28;20035;-62
2023/04/03 02:36:42;;;;;;;6.57;4.80;;;5.20;75.90;;;;;;4959053;28;20285;-62
2023/04/03 02:39:08;;;;;;;5.75;4.32;;;5.20;75.80;;;;;;4957444;28;20062;-61
2023/04/03 02:41:34;;;;;;;5.35;4.60;;;5.20;75.80;;;;;;4955627;28;20043;-62
2023/04/03 02:44:01;;;;;;;5.38;4.60;;;5.20;75.70;;;;;;4955981;28;20034;-62
2023/04/03 02:46:27;;;;;;;5.07;4.47;;;5.20;75.30;;;;;;4955574;28;20173;-60
2023/04/03 02:48:52;;;;;;;4.68;3.65;;;5.20;75.40;;;;;;4956439;28;20122;-62
2023/04/03 02:51:18;;;;;;;4.72;3.97;;;5.20;74.90;;;;;;4956480;28;20039;-61
2023/04/03 02:53:43;;;;;;;4.55;4.05;;;5.20;75.00;;;;;;4957099;28;20047;-62
2023/04/03 02:56:09;;;;;;;4.93;3.78;;;5.10;74.80;;;;;;4957519;28;20121;-62
2023/04/03 02:58:35;;;;;;;3.88;3.58;;;5.10;74.80;;;;;;4955874;28;20133;-61
2023/04/03 03:01:01;;;;;;;3.97;3.58;;;5.10;74.30;;;;;;4956691;28;20089;-62
2023/04/03 03:03:26;;;;;;;3.58;3.28;;;5.10;74.10;;;;;;4955882;28;20468;-62
2023/04/03 03:06:05;;;;;;;4.03;3.63;;;5.10;74.10;;;;;;4955793;28;20035;-62
2023/04/03 03:08:30;;;;;;;5.05;3.80;;;5.10;73.80;;;;;;4956845;28;20074;-62
2023/04/03 03:10:56;;;;;;;5.20;3.58;;;5.10;74.30;;;;;;4955670;28;20043;-62
2023/04/03 03:13:22;;;;;;;4.00;3.60;;;5.10;74.30;;;;;;4955518;28;20077;-61
2023/04/03 03:15:47;;;;;;;4.15;3.67;;;5.10;73.90;;;;;;4957681;28;20054;-62
2023/04/03 03:18:13;;;;;;;4.78;3.88;;;5.10;73.70;;;;;;4957270;28;20042;-62
2023/04/03 03:20:38;;;;;;;4.88;3.60;;;5.10;73.80;;;;;;4957928;28;20404;-62
2023/04/03 03:23:04;;;;;;;4.22;3.80;;;5.10;74.00;;;;;;4956404;28;20499;-63
2023/04/03 03:25:29;;;;;;;5.43;4.13;;;5.10;74.00;;;;;;4958827;28;20097;-62
2023/04/03 03:27:55;;;;;;;4.55;4.15;;;5.10;74.00;;;;;;4957348;28;20126;-62
2023/04/03 03:30:20;;;;;;;5.10;4.45;;;5.10;74.20;;;;;;4953613;28;20522;-62
2023/04/03 03:32:46;;;;;;;4.40;4.00;;;5.10;74.50;;;;;;4956174;28;20171;-62
2023/04/03 03:35:12;;;;;;;4.70;4.30;;;5.10;74.40;;;;;;4957792;28;20085;-62
2023/04/03 03:37:37;;;;;;;4.95;4.47;;;5.10;74.50;;;;;;4958616;28;20337;-61
2023/04/03 03:40:03;;;;;;;5.95;4.60;;;5.10;74.50;;;;;;4961138;28;20046;-62
2023/04/03 03:42:28;;;;;;;4.90;4.40;;;5.20;74.30;;;;;;4958999;28;20102;-62
2023/04/03 03:44:54;;;;;;;7.50;4.60;;;5.20;74.40;;;;;;4960262;28;20031;-62
2023/04/03 03:47:20;;;;;;;5.38;4.70;;;5.20;74.50;;;;;;4957675;28;20035;-62
2023/04/03 03:49:46;;;;;;;5.10;4.55;;;5.20;74.30;;;;;;4955007;28;20046;-63
2023/04/03 03:52:11;;;;;;;6.18;4.82;;;5.20;74.10;;;;;;4945855;28;20049;-61
2023/04/03 03:54:37;;;;;;;4.63;4.22;;;5.20;73.90;;;;;;4955198;28;20038;-62
2023/04/03 03:57:03;;;;;;;5.05;4.38;;;5.10;73.60;;;;;;4956578;28;20083;-62
2023/04/03 03:59:30;;;;;;;4.88;4.32;;;5.10;73.90;;;;;;4956573;28;20133;-62
2023/04/03 04:01:56;;;;;;;4.85;4.35;;;5.10;73.90;;;;;;4956355;28;20129;-62
2023/04/03 04:04:21;;;;;;;6.80;4.88;;;5.10;73.80;;;;;;4955149;28;20073;-62
2023/04/03 04:06:47;;;;;;;9.75;6.40;;;5.10;73.80;;;;;;4955534;28;20407;-62
2023/04/03 04:09:12;;;;;;;8.55;5.32;;;5.10;73.80;;;;;;4956463;28;20098;-62
2023/04/03 04:11:39;;;;;;;5.93;4.65;;;5.00;73.80;;;;;;4956535;28;20595;-62
2023/04/03 04:14:06;;;;;;;4.80;4.03;;;5.00;73.40;;;;;;4954951;28;20414;-62
2023/04/03 04:16:31;;;;;;;4.50;4.10;;;5.00;73.40;;;;;;4954689;28;21514;-63
2023/04/03 04:18:57;;;;;;;4.20;3.83;;;5.00;73.50;;;;;;4956189;28;20039;-62
2023/04/03 04:21:22;;;;;;;4.78;3.95;;;5.00;73.50;;;;;;4955220;28;20062;-62
2023/04/03 04:23:48;;;;;;;4.45;4.03;;;5.00;73.60;;;;;;4957190;28;20039;-62
2023/04/03 04:26:13;;;;;;;5.97;4.38;;;5.00;73.90;;;;;;4954802;28;21730;-61
2023/04/03 04:28:39;;;;;;;5.45;4.88;;;5.00;73.80;;;;;;4937214;28;20046;-62
2023/04/03 04:31:05;;;;;;;5.50;4.57;;;5.00;73.70;;;;;;4955987;28;20031;-62
2023/04/03 04:33:30;;;;;;;5.43;4.63;;;5.10;73.90;;;;;;4955592;28;20664;-61
2023/04/03 04:35:56;;;;;;;6.07;4.50;;;5.10;74.20;;;;;;4957457;28;20035;-62
2023/04/03 04:38:21;;;;;;;6.15;4.60;;;5.00;74.30;;;;;;4956641;28;20058;-61
2023/04/03 04:40:48;;;;;;;6.45;4.40;;;5.10;74.50;;;;;;4959130;28;20035;-61
2023/04/03 04:43:14;;;;;;;4.20;3.58;;;5.10;74.60;;;;;;4957303;28;20495;-61
2023/04/03 04:45:41;;;;;;;4.38;3.50;;;5.10;74.60;;;;;;4955853;28;20055;-62
2023/04/03 04:48:07;;;;;;;4.00;3.60;;;5.10;74.50;;;;;;4955409;28;20185;-62
2023/04/03 04:50:33;;;;;;;4.13;3.72;;;5.10;74.30;;;;;;4956511;28;20031;-62
2023/04/03 04:52:58;;;;;;;5.88;3.47;;;5.10;74.10;;;;;;4957831;28;20519;-62
2023/04/03 04:55:24;;;;;;;4.55;3.20;;;5.10;74.10;;;;;;4957374;28;20252;-62
2023/04/03 04:57:50;;;;;;;3.72;3.20;;;5.10;74.10;;;;;;4957384;28;20478;-62
2023/04/03 05:00:15;;;;;;;4.53;2.85;;;5.10;74.10;;;;;;4957674;28;20510;-62
2023/04/03 05:02:41;;;;;;;3.70;2.72;;;5.10;73.90;;;;;;4956456;28;20039;-62
2023/04/03 05:05:07;;;;;;;3.55;2.88;;;5.30;73.90;;;;;;4956486;28;20042;-62
2023/04/03 05:07:33;;;;;;;4.57;2.75;;;5.10;73.60;;;;;;4955414;28;20039;-62
2023/04/03 05:09:59;;;;;;;2.95;2.65;;;5.10;73.40;;;;;;4957374;28;20042;-60
2023/04/03 05:12:24;;;;;;;2.90;2.60;;;5.10;73.40;;;;;;4956746;28;20035;-62
2023/04/03 05:14:50;;;;;;;2.80;2.50;;;5.10;73.30;;;;;;4957608;28;20558;-62
2023/04/03 05:17:15;;;;;;;2.97;2.67;;;5.10;73.30;;;;;;4957738;28;20031;-62
2023/04/03 05:19:41;;;;;;;2.65;2.45;;;5.10;73.30;;;;;;4959476;28;20118;-62
2023/04/03 05:22:06;;;;;;;4.22;2.80;;;5.10;73.40;;;;;;4959024;28;20023;-62
2023/04/03 05:24:32;;;;;;;3.50;2.63;;;5.10;73.30;;;;;;4958030;28;20039;-61
2023/04/03 05:26:58;;;;;;;3.35;2.50;;;5.10;73.20;;;;;;4958535;28;20065;-62
2023/04/03 05:29:24;;;;;;;3.28;2.65;;;5.10;73.10;;;;;;4957701;28;20055;-62
2023/04/03 05:31:50;;;;;;;3.42;2.38;;;5.10;73.10;;;;;;4958335;28;20039;-63
2023/04/03 05:34:16;;;;;;;3.38;2.50;;;5.10;73.20;;;;;;4958297;28;20410;-62
2023/04/03 05:36:42;;;;;;;3.30;2.58;;;5.10;73.30;;;;;;4956665;28;20046;-62
2023/04/03 05:39:08;;;;;;;3.10;2.45;;;5.10;73.30;;;;;;4958320;28;20118;-63
2023/04/03 05:41:34;;;;;;;2.63;2.42;;;5.10;73.40;;;;;;4958377;28;20053;-62
2023/04/03 05:44:00;;;;;;;4.55;2.80;;;5.10;73.40;;;;;;4959082;28;20046;-62
2023/04/03 05:46:25;;;;;;;3.35;2.55;;;5.10;73.30;;;;;;4958301;28;20414;-62
2023/04/03 05:48:51;;;;;;;2.97;2.67;;;5.30;73.30;;;;;;4954921;28;20080;-62
2023/04/03 05:51:21;;;;;;;3.67;2.60;;;5.10;73.30;;;;;;4956721;28;20027;-63
2023/04/03 05:53:47;;;;;;;5.68;3.10;;;5.10;73.30;;;;;;4953825;28;20495;-63
2023/04/03 05:56:13;;;;;;;3.10;2.90;;;5.10;73.40;;;;;;4956338;28;20042;-60
2023/04/03 05:58:39;;;;;;;2.95;2.65;;;5.10;73.60;;;;;;4960159;28;20486;-60
2023/04/03 06:01:05;;;;;;;3.60;2.63;;;5.10;73.60;;;;;;4960662;28;20039;-61
2023/04/03 06:03:31;;;;;;;3.35;2.80;;;5.10;73.80;;;;;;4958271;28;20125;-62
2023/04/03 06:05:57;;;;;;;4.32;2.80;;;5.10;73.80;;;;;;4960357;28;20117;-62
2023/04/03 06:08:23;;;;;;;2.90;2.70;;;5.20;73.70;;;;;;4959376;28;20043;-62
2023/04/03 06:10:50;;;;;;;3.20;2.65;;;5.20;73.60;;;;;;4960356;28;20092;-62
2023/04/03 06:13:15;;;;;;;2.90;2.65;;;5.20;73.60;;;;;;4960394;28;20106;-62
2023/04/03 06:15:41;;;;;;;3.90;2.90;;;5.20;73.60;;;;;;4959576;28;20039;-62
2023/04/03 06:18:07;;;;;;;3.92;3.00;;;5.20;73.60;;;;;;4959362;28;20049;-62
2023/04/03 06:20:32;;;;;;;4.20;2.70;;;5.20;73.60;;;;;;4959348;28;20102;-62
2023/04/03 06:22:58;;;;;;;3.28;2.95;;;5.20;73.50;;;;;;4960554;28;20035;-62
2023/04/03 06:25:24;;;;;;;4.88;2.85;;;5.20;73.50;;;;;;4958927;28;20031;-62
2023/04/03 06:27:49;;;;;;;2.85;2.58;;;5.20;73.60;;;;;;4959826;28;20031;-62
2023/04/03 06:30:15;;;;;;;7.10;2.88;;;5.20;73.70;;;;;;4960243;28;20043;-62
2023/04/03 06:32:41;;;;;;;3.20;2.70;;;5.20;73.80;;;;;;4957793;28;20102;-62
2023/04/03 06:35:07;;;;;;;3.33;3.00;;;5.20;73.80;;;;;;4961046;28;20042;-62
2023/04/03 06:37:32;;;;;;;4.40;2.85;;;5.20;73.80;;;;;;4958936;28;20042;-62
2023/04/03 06:40:00;;;;;;;3.75;2.45;;;5.30;73.80;;;;;;4960581;28;20441;-62
2023/04/03 06:42:26;;;;;;;3.20;2.67;;;5.20;73.70;;;;;;4958565;28;20027;-62
2023/04/03 06:44:51;;;;;;;3.28;2.65;;;5.20;73.80;;;;;;4959502;28;20035;-62
2023/04/03 06:47:17;;;;;;;3.25;2.88;;;5.20;73.80;;;;;;4958164;28;20101;-62
2023/04/03 06:49:44;;;;;;;3.95;3.00;;;5.30;73.90;;;;;;4959479;28;20379;-62
2023/04/03 06:52:09;;;;;;;4.75;2.85;;;5.30;73.50;;;;;;4959668;28;20503;-61
2023/04/03 06:54:35;;;;;;;4.28;2.63;;;5.30;73.80;;;;;;4959443;28;20721;-61
2023/04/03 06:57:01;;;;;;;3.90;3.17;;;5.30;73.80;;;;;;4959488;28;20039;-62
2023/04/03 06:59:27;;;;;;;5.97;3.15;;;5.30;73.80;;;;;;4958592;28;20577;-62
2023/04/03 07:01:53;;;;;;;4.55;3.20;;;5.30;73.80;;;;;;4959596;28;20043;-62
2023/04/03 07:04:20;;;;;;;4.85;2.97;;;5.20;73.90;;;;;;4960086;28;20506;-62
2023/04/03 07:06:46;;;;;;;4.40;2.47;;;5.30;74.00;;;;;;4960156;28;20583;-61
2023/04/03 07:09:13;;;;;;;3.85;2.97;;;5.30;73.90;;;;;;4959258;28;20070;-60
2023/04/03 07:11:39;;;;;;;4.32;2.95;;;5.30;73.80;;;;;;4959253;28;20427;-62
2023/04/03 07:14:05;;;;;;;4.05;3.10;;;5.30;74.00;;;;;;4958953;28;20042;-60
2023/04/03 07:16:31;;;;;;;6.32;3.03;;;5.30;74.00;;;;;;4958055;28;20071;-62
2023/04/03 07:18:57;;;;;;;3.30;2.80;;;5.30;74.00;;;;;;4959542;28;20058;-62
2023/04/03 07:21:23;;;;;;;2.70;2.47;;;5.30;73.70;;;;;;4958785;28;20031;-60
2023/04/03 07:23:49;;;;;;;4.35;3.05;;;5.30;73.80;;;;;;4960221;28;20126;-62
2023/04/03 07:26:14;;;;;;;5.70;2.95;;;5.30;74.00;;;;;;4958806;28;20534;-62
2023/04/03 07:28:41;;;;;;;3.20;2.90;;;5.40;74.10;;;;;;4958319;28;20533;-62
2023/04/03 07:31:11;;;;;;;4.03;2.72;;;5.30;74.00;;;;;;4960072;28;20241;-62
2023/04/03 07:33:38;;;;;;;3.78;3.05;;;5.40;74.00;;;;;;4956474;28;20047;-62
2023/04/03 07:36:05;;;;;;;4.35;3.40;;;5.40;74.10;;;;;;4959966;28;20043;-62
2023/04/03 07:38:30;;;;;;;3.58;3.25;;;5.40;74.00;;;;;;4959932;28;20034;-62
2023/04/03 07:40:56;;;;;;;4.63;3.10;;;5.40;74.20;;;;;;4960218;28;20035;-62
2023/04/03 07:43:24;;;;;;;3.50;3.05;;;5.40;74.40;;;;;;4959893;28;20169;-62
2023/04/03 07:45:50;;;;;;;4.70;3.10;;;5.40;74.50;;;;;;4959515;28;20114;-62
2023/04/03 07:48:18;;;;;;;4.40;3.65;;;5.50;74.60;;;;;;4958221;28;20051;-62
2023/04/03 07:50:44;;;;;;;5.07;3.42;;;5.50;74.60;;;;;;4957243;28;20046;-62
2023/04/03 07:53:10;;;;;;;4.57;3.63;;;5.50;74.80;;;;;;4958230;28;20036;-62
2023/04/03 07:55:42;;;;;;;3.53;3.22;;;5.60;74.90;;;;;;4957735;28;20145;-61
2023/04/03 07:58:11;;;;;;;7.95;3.55;;;5.60;75.00;;;;;;4958974;28;20035;-62
2023/04/03 08:00:38;;;;;;;4.30;3.50;;;5.70;75.10;;;;;;4957616;28;20513;-62
2023/04/03 08:03:04;;;;;;;6.10;3.70;;;5.70;75.00;;;;;;4955240;28;20031;-62
2023/04/03 08:05:30;;;;;;;5.03;3.40;;;5.80;75.00;;;;;;4959940;28;20058;-62
2023/04/03 08:07:55;;;;;;;5.75;3.95;;;5.80;74.80;;;;;;4958902;28;20492;-62
2023/04/03 08:10:21;;;;;;;4.05;3.65;;;5.90;74.80;;;;;;4960143;28;20325;-61
2023/04/03 08:12:47;;;;;;;4.10;3.47;;;5.90;74.80;;;;;;4957023;28;20043;-62
2023/04/03 08:15:13;;;;;;;4.65;3.65;;;6.00;74.80;;;;;;4959334;28;20396;-62
2023/04/03 08:17:39;;;;;;;4.38;3.28;;;6.00;74.80;;;;;;4958075;28;20039;-62
2023/04/03 08:20:06;;;;;;;4.30;3.78;;;6.10;74.70;;;;;;4957470;28;20145;-61
2023/04/03 08:22:32;;;;;;;4.82;3.53;;;6.10;74.50;;;;;;4956943;28;20042;-62
2023/04/03 08:24:58;;;;;;;4.60;3.60;;;6.20;74.50;;;;;;4958370;28;20093;-62
2023/04/03 08:27:24;;;;;;;4.75;3.45;;;6.20;74.40;;;;;;4957188;28;20113;-61
2023/04/03 08:29:50;;;;;;;5.70;3.60;;;6.20;74.50;;;;;;4958592;28;20075;-63
2023/04/03 08:32:15;;;;;;;4.40;4.00;;;6.20;74.30;;;;;;4947593;28;20091;-61
2023/04/03 08:34:41;;;;;;;4.38;3.45;;;6.30;74.20;;;;;;4956993;28;20463;-61
2023/04/03 08:37:06;;;;;;;3.92;3.50;;;6.30;74.10;;;;;;4956136;28;20050;-62
2023/04/03 08:39:32;;;;;;;4.72;3.80;;;6.30;74.10;;;;;;4956988;28;20157;-62
2023/04/03 08:42:02;;;;;;;5.55;3.40;;;6.30;74.00;;;;;;4958410;28;20039;-61
2023/04/03 08:45:06;;;;;;;7.05;3.78;;;6.30;73.90;;;;;;4957927;28;20032;-62
2023/04/03 08:47:45;;;;;;;3.83;3.17;;;6.40;73.50;;;;;;4952576;28;20039;-62
2023/04/03 08:50:16;;;;;;;5.68;3.75;;;6.40;74.00;;;;;;4957836;28;20114;-60
2023/04/03 08:52:47;;;;;;;6.28;4.20;;;6.40;74.10;;;;;;4958629;28;20034;-62
2023/04/03 08:55:21;;;;;;;5.47;3.60;;;6.50;74.10;;;;;;4959023;28;20031;-62
2023/04/03 08:57:50;;;;;;;4.70;3.55;;;6.50;73.90;;;;;;4945409;28;20495;-62
2023/04/03 09:00:20;;;;;;;4.55;3.67;;;6.60;74.00;;;;;;4959329;28;20043;-62
2023/04/03 09:02:54;;;;;;;3.72;3.28;;;6.60;73.90;;;;;;4957326;28;20411;-62
2023/04/03 09:05:32;;;;;;;6.05;3.55;;;6.70;73.50;;;;;;4957839;28;20090;-61
2023/04/03 09:08:04;;;;;;;5.55;3.30;;;6.70;73.50;;;;;;4959961;28;20114;-62
2023/04/03 09:10:33;;;;;;;5.47;3.53;;;6.80;73.50;;;;;;4956317;28;20039;-63
2023/04/03 09:13:12;;;;;;;4.25;3.15;;;6.80;73.20;;;;;;4957537;28;20062;-62
2023/04/03 09:15:38;;;;;;;3.65;3.05;;;6.90;72.80;;;;;;4956393;28;20047;-61
2023/04/03 09:18:26;;;;;;;4.95;2.97;;;7.00;73.00;;;;;;4958243;28;20031;-62
2023/04/03 09:21:07;;;;;;;3.38;3.00;;;7.00;72.20;;;;;;4959039;28;20039;-62
2023/04/03 09:23:38;;;;;;;3.42;2.88;;;7.00;72.50;;;;;;4957662;28;20614;-62
2023/04/03 09:26:17;;;;;;;3.25;2.78;;;7.10;71.70;;;;;;4957519;28;20159;-63
2023/04/03 09:28:44;;;;;;;3.55;3.13;;;7.10;71.40;;;;;;4958919;28;20034;-62
2023/04/03 09:31:35;;;;;;;4.47;2.90;;;7.10;71.40;;;;;;4958618;28;20042;-63
2023/04/03 09:34:06;;;;;;;3.72;2.88;;;7.20;70.70;;;;;;4956703;28;20217;-62
2023/04/03 09:36:51;;;;;;;4.93;2.78;;;7.20;71.30;;;;;;4958881;28;20434;-61
2023/04/03 09:39:20;;;;;;;2.90;2.60;;;7.30;70.40;;;;;;4959685;28;20369;-62
2023/04/03 09:42:03;;;;;;;3.75;2.60;;;7.30;70.80;;;;;;4959223;28;20391;-61
2023/04/03 09:44:33;;;;;;;2.75;2.55;;;7.40;70.00;;;;;;4959717;28;20039;-63
2023/04/03 09:47:00;;;;;;;2.80;2.47;;;7.40;70.60;;;;;;4958040;28;20562;-61
2023/04/03 09:49:26;;;;;;;3.33;2.80;;;7.40;71.10;;;;;;4957619;28;20036;-61
2023/04/03 09:51:51;;;;;;;3.90;3.05;;;7.50;69.90;;;;;;4957802;28;20467;-63
2023/04/03 09:54:32;;;;;;;2.97;2.78;;;7.40;69.30;;;;;;4957521;28;20050;-62
2023/04/03 09:57:07;;;;;;;2.80;2.60;;;7.40;68.80;;;;;;4957467;28;20046;-62
2023/04/03 09:59:32;;;;;;;7.15;2.70;;;7.40;69.20;;;;;;4957106;28;20039;-62
2023/04/03 10:02:18;;;;;;;2.80;2.50;;;7.40;69.80;;;;;;4956654;28;20351;-62
2023/04/03 10:04:43;;;;;;;;;;;7.40;69.50;;;;;;4957396;28;20465;-62
2023/04/03 10:07:32;;;;;;;2.75;2.53;;;7.40;69.20;;;;;;4957391;28;20014;-62
2023/04/03 10:10:19;;;;;;;3.15;2.83;;;7.50;68.80;;;;;;4957258;28;20039;-61
2023/04/03 10:12:45;;;;;;;2.97;2.70;;;7.50;69.20;;;;;;4956443;28;20039;-62
2023/04/03 10:15:21;;;;;;;3.53;2.70;;;7.50;69.70;;;;;;4955383;28;20250;-62
2023/04/03 10:18:23;;;;;;;3.10;2.80;;;7.50;69.30;;;;;;4956657;28;20031;-62
2023/04/03 10:20:52;;;;;;;2.80;2.53;;;7.60;68.80;;;;;;4956637;28;20125;-62
2023/04/03 10:23:21;;;;;;;2.47;2.28;;;7.60;69.00;;;;;;4956841;28;20102;-62
2023/04/03 10:26:29;;;;;;;2.75;2.40;;;7.60;69.00;;;;;;4956239;28;20031;-62
2023/04/03 10:29:16;;;;;;;2.50;2.30;;;7.70;68.00;;;;;;4956686;28;20042;-61
2023/04/03 10:31:53;;;;;;;2.40;2.20;;;7.80;68.20;;;;;;4955360;28;21008;-62
2023/04/03 10:34:40;;;;;;;3.20;2.55;;;7.90;68.30;;;;;;4958209;28;20074;-61
2023/04/03 10:37:25;;;;;;;3.13;2.33;;;7.90;67.60;;;;;;4955362;28;20035;-62
2023/04/03 10:40:01;;;;;;;2.47;2.28;;;8.00;67.60;;;;;;4957271;28;20042;-62
2023/04/03 10:42:47;;;;;;;3.30;2.55;;;8.00;68.00;;;;;;4957156;28;20573;-63
2023/04/03 10:45:30;;;;;;;3.38;2.30;;;8.10;67.50;;;;;;4959921;28;20574;-62
2023/04/03 10:48:04;;;;;;;2.72;2.50;;;8.10;67.40;;;;;;4961059;28;20039;-62
2023/04/03 10:50:47;;;;;;;2.85;2.50;;;8.10;67.30;;;;;;4959955;28;20031;-63
2023/04/03 10:53:35;;;;;;;2.88;2.47;;;8.10;66.30;;;;;;4961545;28;20517;-62
2023/04/03 10:56:27;;;;;;;3.08;2.72;;;8.10;66.40;;;;;;4960044;28;20031;-63
2023/04/03 10:59:28;;;;;;;2.70;2.50;;;8.10;67.40;;;;;;4933377;28;20270;-62
2023/04/03 11:02:21;;;;;;;2.92;2.60;;;8.20;66.00;;;;;;4961111;28;20027;-62
2023/04/03 11:04:52;;;;;;;4.93;2.70;;;8.20;66.80;;;;;;4953414;28;20040;-62
2023/04/03 11:07:23;;;;;;;3.80;2.80;;;8.20;67.10;;;;;;4959181;28;20388;-62
2023/04/03 11:10:03;;;;;;;3.28;2.97;;;8.20;66.60;;;;;;4959566;28;20035;-62
2023/04/03 11:12:52;;;;;;;2.83;2.63;;;8.20;66.40;;;;;;4960314;28;20502;-61
2023/04/03 11:15:21;;;;;;;3.17;2.70;;;8.20;66.10;;;;;;4959367;28;20039;-62
2023/04/03 11:18:01;;;;;;;2.80;2.60;;;8.20;66.60;;;;;;4957480;28;20035;-62
2023/04/03 11:20:32;;;;;;;4.65;3.20;;;8.10;65.60;;;;;;4958510;28;20077;-62
2023/04/03 11:23:17;;;;;;;3.42;2.75;;;8.10;65.70;;;;;;4959926;28;20046;-62
2023/04/03 11:25:43;;;;;;;4.47;2.78;;;8.10;66.10;;;;;;4959566;28;20054;-63
2023/04/03 11:28:13;;;;;;;3.13;2.35;;;8.00;66.40;;;;;;4959705;28;20408;-62
2023/04/03 11:31:19;;;;;;;3.50;2.90;;;8.00;65.50;;;;;;4958602;28;20049;-63
2023/04/03 11:33:52;;;;;;;3.47;2.72;;;8.00;65.00;;;;;;4958783;28;20532;-63
2023/04/03 11:36:48;;;;;;;3.25;2.70;;;8.00;65.70;;;;;;4960737;28;20438;-62
2023/04/03 11:39:37;;;;;;;2.78;2.38;;;8.00;65.70;;;;;;4961092;28;20034;-63
2023/04/03 11:42:37;;;;;;;2.85;2.65;;;8.00;65.30;;;;;;4944333;28;20035;-62
2023/04/03 11:45:27;;;;;;;3.58;2.72;;;7.90;64.60;;;;;;4961291;28;20058;-62
2023/04/03 11:48:04;;;;;;;4.30;2.90;;;8.00;65.50;;;;;;4961768;28;20048;-63
2023/04/03 11:50:47;;;;;;;3.25;2.38;;;8.00;65.70;;;;;;4957932;28;20031;-62
2023/04/03 11:53:13;;;;;;;3.13;2.45;;;8.00;65.50;;;;;;4958873;28;20042;-62
2023/04/03 11:55:59;;;;;;;2.40;2.20;;;8.00;66.20;;;;;;4957814;28;20057;-62
2023/04/03 11:58:34;;;;;;;4.30;2.63;;;8.00;65.20;;;;;;4960198;28;20031;-62
2023/04/03 12:01:09;;;;;;;2.33;2.08;;;8.00;65.20;;;;;;4958600;28;20391;-61
2023/04/03 12:03:41;;;;;;;2.60;2.40;;;8.10;65.40;;;;;;4960424;28;20033;-62
2023/04/03 12:06:09;;;;;;;2.45;2.25;;;8.10;64.50;;;;;;4957561;28;20594;-62
2023/04/03 12:08:46;;;;;;;3.10;2.38;;;8.10;64.50;;;;;;4958984;28;20049;-63
2023/04/03 12:11:12;;;;;;;9.20;2.63;;;8.10;64.00;;;;;;4957450;28;20046;-62
2023/04/03 12:13:39;;;;;;;3.33;3.03;;;8.10;64.30;;;;;;4956596;28;20035;-62
2023/04/03 12:16:07;;;;;;;8.13;5.90;;;8.10;64.20;;;;;;4959396;28;20039;-62
2023/04/03 12:18:44;;;;;;;4.88;2.60;;;8.10;64.10;;;;;;4956760;28;20050;-63
2023/04/03 12:21:13;;;;;;;3.00;2.38;;;8.10;63.90;;;;;;4958699;28;20031;-63
2023/04/03 12:24:09;;;;;;;3.65;2.47;;;8.10;64.50;;;;;;4958333;28;20035;-62
2023/04/03 12:26:59;;;;;;;2.47;2.28;;;8.10;64.60;;;;;;4957992;28;20460;-63
2023/04/03 12:29:32;;;;;;;2.70;2.20;;;8.10;64.10;;;;;;4959094;28;20030;-62
2023/04/03 12:32:36;;;;;;;2.63;2.40;;;8.10;64.10;;;;;;4959376;28;20061;-62
2023/04/03 12:35:01;;;;;;;4.07;2.40;;;8.20;63.60;;;;;;4957610;28;20058;-62
2023/04/03 12:37:30;;;;;;;2.28;2.08;;;8.20;64.70;;;;;;4959349;28;20122;-62
2023/04/03 12:40:07;;;;;;;2.78;2.30;;;8.20;64.60;;;;;;4960142;28;20031;-63
2023/04/03 12:42:53;;;;;;;3.92;2.60;;;8.30;63.90;;;;;;4957728;28;20572;-61
2023/04/03 12:45:25;;;;;;;4.20;2.63;;;8.30;64.00;;;;;;4956813;28;20059;-63
2023/04/03 12:47:54;;;;;;;3.10;2.40;;;8.30;63.80;;;;;;4957409;28;20597;-62
2023/04/03 12:50:29;;;;;;;2.53;2.33;;;8.30;64.30;;;;;;4958438;28;20134;-62
2023/04/03 12:53:17;;;;;;;3.53;2.60;;;8.30;64.30;;;;;;4958215;28;20042;-62
2023/04/03 12:55:42;;;;;;;4.47;2.40;;;8.40;64.30;;;;;;4958325;28;20075;-61
2023/04/03 12:58:23;;;;;;;2.75;2.55;;;8.40;64.60;;;;;;4958030;28;20113;-62
2023/04/03 13:01:11;;;;;;;3.92;2.47;;;8.50;63.80;;;;;;4958774;28;20046;-62
2023/04/03 13:03:40;;;;;;;2.80;2.50;;;8.50;64.10;;;;;;4958276;28;20042;-63
2023/04/03 13:06:05;;;;;;;3.20;2.67;;;8.60;64.60;;;;;;4958044;28;20105;-61
2023/04/03 13:08:32;;;;;;;2.95;2.40;;;8.60;64.50;;;;;;4958744;28;20035;-61
2023/04/03 13:11:02;;;;;;;2.40;2.25;;;8.60;63.80;;;;;;4959613;28;20031;-62
2023/04/03 13:13:28;;;;;;;3.65;2.20;;;8.60;63.70;;;;;;4957233;28;20518;-63